createdAt,value
2023-05-18T00:01:02.450Z,12.2
2023-05-18T00:06:00.758Z,12.2
2023-05-18T00:10:58.828Z,12.3
2023-05-18T00:15:56.916Z,12.3
2023-05-18T00:20:54.892Z,12.1
2023-05-18T00:25:53.162Z,12.1
2023-05-18T00:30:51.600Z,12.1
2023-05-18T00:35:50.354Z,12.2
2023-05-18T00:40:48.689Z,12.3
2023-05-18T00:45:47.024Z,12.4
2023-05-18T00:50:45.220Z,12
2023-05-18T00:55:43.299Z,12
2023-05-18T01:00:41.604Z,12.1
2023-05-18T01:05:39.918Z,12.6
2023-05-18T01:10:37.904Z,12.3
2023-05-18T01:15:35.989Z,12.2
2023-05-18T01:20:34.103Z,12.2
2023-05-18T01:25:32.397Z,12.3
2023-05-18T01:30:30.452Z,12.2
2023-05-18T01:35:28.656Z,12.4
2023-05-18T01:40:26.606Z,12.2
2023-05-18T01:45:24.660Z,12.4
2023-05-18T01:50:22.878Z,12.2
2023-05-18T01:55:21.761Z,12.2
2023-05-18T02:00:19.885Z,12.3
2023-05-18T02:05:18.016Z,12
2023-05-18T02:10:16.224Z,12.1
2023-05-18T02:15:14.218Z,12
2023-05-18T02:20:12.534Z,12.1
2023-05-18T02:25:10.495Z,12.2
2023-05-18T02:30:08.562Z,12
2023-05-18T02:35:06.671Z,12
2023-05-18T02:40:04.912Z,12
2023-05-18T02:45:02.779Z,12
2023-05-18T02:50:00.932Z,11.9
2023-05-18T02:54:58.929Z,11.8
2023-05-18T02:59:57.018Z,11.8
2023-05-18T03:04:55.067Z,11.8
2023-05-18T03:09:53.501Z,11.9
2023-05-18T03:14:51.706Z,12
2023-05-18T03:19:50.158Z,11.9
2023-05-18T03:24:48.456Z,12.1
2023-05-18T03:29:46.780Z,12.2
2023-05-18T03:34:45.115Z,12.2
2023-05-18T03:39:43.522Z,12.3
2023-05-18T03:44:42.112Z,12.6
2023-05-18T03:49:40.460Z,12.8
2023-05-18T03:54:39.053Z,12.7
2023-05-18T03:59:37.460Z,12.8
2023-05-18T04:04:35.517Z,12.7
2023-05-18T04:09:33.989Z,12.8
2023-05-18T04:14:32.272Z,12.9
2023-05-18T04:19:30.704Z,13.3
2023-05-18T04:24:29.533Z,14.3
2023-05-18T04:29:28.571Z,14.6
2023-05-18T04:34:27.219Z,14.9
2023-05-18T04:39:25.917Z,15
2023-05-18T04:44:23.830Z,15.3
2023-05-18T04:49:22.481Z,16.2
2023-05-18T04:54:22.859Z,17.2
2023-05-18T04:59:21.655Z,17.5
2023-05-18T05:04:20.248Z,17.7
2023-05-18T05:09:17.987Z,16.4
2023-05-18T05:14:15.921Z,16.5
2023-05-18T05:19:13.787Z,15.4
2023-05-18T05:24:15.302Z,15.4
2023-05-18T05:29:12.726Z,16
2023-05-18T05:34:11.241Z,16.5
2023-05-18T05:39:09.390Z,15.9
2023-05-18T05:44:06.901Z,15.5
2023-05-18T05:49:04.622Z,15.4
2023-05-18T05:54:02.757Z,15.7
2023-05-18T05:59:01.126Z,16.3
2023-05-18T06:03:59.787Z,16.3
2023-05-18T06:08:58.094Z,16.2
2023-05-18T06:13:56.252Z,15.9
2023-05-18T06:18:54.634Z,16
2023-05-18T06:23:53.015Z,16.5
2023-05-18T06:28:51.420Z,16.3
2023-05-18T06:33:49.355Z,16.1
2023-05-18T06:38:47.904Z,16.5
2023-05-18T06:43:46.418Z,16.1
2023-05-18T06:48:44.250Z,15.7
2023-05-18T06:53:42.478Z,16
2023-05-18T06:58:41.317Z,16.5
2023-05-18T07:03:39.612Z,16.8
2023-05-18T07:08:38.233Z,17.6
2023-05-18T07:13:36.818Z,18.1
2023-05-18T07:18:35.143Z,17.3
2023-05-18T07:23:32.795Z,17.1
2023-05-18T07:28:30.621Z,16.9
2023-05-18T07:33:28.955Z,16.9
2023-05-18T07:38:26.900Z,16.3
2023-05-18T07:43:28.921Z,17
2023-05-18T07:48:26.785Z,18
2023-05-18T07:53:25.643Z,18.7
2023-05-18T07:58:24.130Z,18.6
2023-05-18T08:03:21.939Z,18
2023-05-18T08:08:18.814Z,16.7
2023-05-18T08:13:16.141Z,16.2
2023-05-18T08:18:14.232Z,16.3
2023-05-18T08:23:12.337Z,15.9
2023-05-18T08:28:10.444Z,15.8
2023-05-18T08:33:08.500Z,15.5
2023-05-18T08:38:06.555Z,15.7
2023-05-18T08:43:05.066Z,16
2023-05-18T08:48:03.410Z,15.9
2023-05-18T08:53:02.375Z,15.9
2023-05-18T08:58:00.671Z,15.9
2023-05-18T09:02:59.115Z,16.4
2023-05-18T09:07:56.908Z,15.9
2023-05-18T09:12:55.039Z,16.3
2023-05-18T09:17:53.421Z,16.6
2023-05-18T09:22:51.629Z,17
2023-05-18T09:27:54.059Z,17
2023-05-18T09:32:51.478Z,16.7
2023-05-18T09:37:49.928Z,17.3
2023-05-18T09:42:48.363Z,17.8
2023-05-18T09:47:47.209Z,18.5
2023-05-18T09:52:46.556Z,20.3
2023-05-18T09:57:47.475Z,23.7
2023-05-18T10:02:47.959Z,26
2023-05-18T10:07:47.744Z,26.7
2023-05-18T10:12:47.482Z,28.4
2023-05-18T10:17:46.231Z,28.2
2023-05-18T10:22:44.527Z,28.1
2023-05-18T10:27:42.586Z,29
2023-05-18T10:32:41.112Z,28.3
2023-05-18T10:37:38.146Z,27.3
2023-05-18T10:42:35.558Z,26.1
2023-05-18T10:47:31.963Z,24
2023-05-18T10:52:28.105Z,21.8
2023-05-18T10:57:25.150Z,20.7
2023-05-18T11:02:22.194Z,19.5
2023-05-18T11:07:19.172Z,18.4
2023-05-18T11:12:16.473Z,17.6
2023-05-18T11:17:13.888Z,16.9
2023-05-18T11:22:11.260Z,16.5
2023-05-18T11:27:08.826Z,16.3
2023-05-18T11:32:06.836Z,16.2
2023-05-18T11:37:04.668Z,15.7
2023-05-18T11:42:02.494Z,15.6
2023-05-18T11:47:00.719Z,15.4
2023-05-18T11:51:59.021Z,15.1
2023-05-18T11:56:56.624Z,14.6
2023-05-18T12:01:55.028Z,14.8
2023-05-18T12:06:52.950Z,15
2023-05-18T12:11:51.190Z,14.7
2023-05-18T12:16:49.438Z,14.2
2023-05-18T12:21:47.364Z,13.8
2023-05-18T12:26:45.139Z,13.4
2023-05-18T12:31:43.429Z,13.3
2023-05-18T12:36:41.617Z,13.7
2023-05-18T12:41:39.845Z,13.8
2023-05-18T12:46:38.515Z,14.2
2023-05-18T12:51:37.160Z,14.6
2023-05-18T12:56:35.536Z,15
2023-05-18T13:01:34.336Z,15.1
2023-05-18T13:06:32.752Z,15.6
2023-05-18T13:11:31.272Z,16.1
2023-05-18T13:16:29.898Z,16.7
2023-05-18T13:21:28.786Z,17.4
2023-05-18T13:26:27.506Z,17.4
2023-05-18T13:31:25.306Z,17.2
2023-05-18T13:36:23.070Z,16.4
2023-05-18T13:41:20.939Z,16
2023-05-18T13:46:19.095Z,16.1
2023-05-18T13:51:16.997Z,15.5
2023-05-18T13:56:14.362Z,14.6
2023-05-18T14:01:13.559Z,14.1
2023-05-18T14:06:10.090Z,14.2
2023-05-18T14:11:08.472Z,14.5
2023-05-18T14:16:06.881Z,14.6
2023-05-18T14:21:08.739Z,15.1
2023-05-18T14:26:06.466Z,15.5
2023-05-18T14:31:04.910Z,15.9
2023-05-18T14:36:03.134Z,15.6
2023-05-18T14:41:01.053Z,15.3
2023-05-18T14:46:07.900Z,15.3
2023-05-18T14:50:56.973Z,15.5
2023-05-18T14:55:55.342Z,15.4
2023-05-18T15:00:53.746Z,15.8
2023-05-18T15:05:52.368Z,15.9
2023-05-18T15:10:50.427Z,16
2023-05-18T15:15:48.185Z,15.9
2023-05-18T15:20:46.071Z,15.5
2023-05-18T15:25:44.378Z,15.9
2023-05-18T15:30:42.569Z,16
2023-05-18T15:35:40.792Z,16.3
2023-05-18T15:40:38.953Z,15.8
2023-05-18T15:45:37.042Z,16
2023-05-18T15:50:35.346Z,16
2023-05-18T15:55:33.167Z,15.3
2023-05-18T16:00:30.867Z,14.9
2023-05-18T16:05:32.570Z,14.8
2023-05-18T16:10:30.274Z,14.6
2023-05-18T16:15:27.914Z,14.4
2023-05-18T16:20:26.269Z,14.4
2023-05-18T16:25:24.667Z,14.7
2023-05-18T16:30:22.801Z,14.5
2023-05-18T16:35:21.052Z,14.3
2023-05-18T16:40:19.140Z,14.2
2023-05-18T16:45:17.335Z,14.2
2023-05-18T16:50:15.407Z,14.3
2023-05-18T16:55:13.446Z,14
2023-05-18T17:00:11.046Z,13.5
2023-05-18T17:05:08.819Z,12.9
2023-05-18T17:10:06.737Z,12.8
2023-05-18T17:15:05.703Z,12.6
2023-05-18T17:20:03.868Z,12.5
2023-05-18T17:25:01.690Z,12.1
2023-05-18T17:30:00.128Z,11.9
2023-05-18T17:34:58.443Z,11.7
2023-05-18T17:39:56.755Z,11.4
2023-05-18T17:44:54.977Z,11.2
2023-05-18T17:49:54.323Z,11.1
2023-05-18T17:54:52.283Z,10.9
2023-05-18T17:59:50.342Z,10.8
2023-05-18T18:04:48.199Z,10.6
2023-05-18T18:09:46.316Z,10.5
2023-05-18T18:14:44.292Z,10.5
2023-05-18T18:19:42.197Z,10.4
2023-05-18T18:24:40.728Z,10.6
2023-05-18T18:29:38.814Z,10.6
2023-05-18T18:34:36.956Z,10.4
2023-05-18T18:39:34.813Z,10.4
2023-05-18T18:44:32.839Z,10.3
2023-05-18T18:49:31.217Z,10.3
2023-05-18T18:54:29.476Z,10.4
2023-05-18T18:59:27.863Z,10.2
2023-05-18T19:04:25.921Z,10.2
2023-05-18T19:09:24.074Z,10.1
2023-05-18T19:14:22.366Z,10.2
2023-05-18T19:19:20.476Z,10.1
2023-05-18T19:24:18.317Z,10
2023-05-18T19:29:16.297Z,10.1
2023-05-18T19:34:14.290Z,10
2023-05-18T19:39:12.388Z,9.8
2023-05-18T19:44:10.536Z,9.9
2023-05-18T19:49:08.784Z,10
2023-05-18T19:54:08.322Z,9.9
2023-05-18T19:59:06.426Z,9.9
2023-05-18T20:04:04.390Z,10.1
2023-05-18T20:09:02.484Z,10
2023-05-18T20:14:00.628Z,10
2023-05-18T20:18:58.844Z,9.9
2023-05-18T20:23:56.805Z,9.9
2023-05-18T20:28:54.663Z,10
2023-05-18T20:33:52.678Z,9.9
2023-05-18T20:38:50.913Z,10
2023-05-18T20:43:49.010Z,9.9
2023-05-18T20:48:47.111Z,9.9
2023-05-18T20:53:45.060Z,9.9
2023-05-18T20:58:46.588Z,9.9
2023-05-18T21:03:43.957Z,9.9
2023-05-18T21:08:41.851Z,9.9
2023-05-18T21:13:39.867Z,9.7
2023-05-18T21:18:38.142Z,9.7
2023-05-18T21:23:36.096Z,9.8
2023-05-18T21:28:34.077Z,9.6
2023-05-18T21:33:32.156Z,9.5
2023-05-18T21:38:30.371Z,9.5
2023-05-18T21:43:28.352Z,9.5
2023-05-18T21:48:26.418Z,9.4
2023-05-18T21:53:24.855Z,9.5
2023-05-18T21:58:23.335Z,9.5
2023-05-18T22:03:21.528Z,9.6
2023-05-18T22:08:23.335Z,9.6
2023-05-18T22:13:21.121Z,9.5
2023-05-18T22:18:19.540Z,9.5
2023-05-18T22:23:17.678Z,9.6
2023-05-18T22:28:16.047Z,9.6
2023-05-18T22:33:14.187Z,9.6
2023-05-18T22:38:12.368Z,9.6
2023-05-18T22:43:10.624Z,9.4
2023-05-18T22:48:08.710Z,9.5
2023-05-18T22:53:07.178Z,9.5
2023-05-18T22:58:05.196Z,9.6
2023-05-18T23:03:03.246Z,9.6
2023-05-18T23:08:01.431Z,9.6
2023-05-18T23:12:59.666Z,9.5
2023-05-18T23:17:57.771Z,9.5
2023-05-18T23:22:56.047Z,9.5
2023-05-18T23:27:54.099Z,9.5
2023-05-18T23:32:52.304Z,9.4
2023-05-18T23:37:50.136Z,9.4
2023-05-18T23:42:48.053Z,9.4
2023-05-18T23:47:46.179Z,9.4
2023-05-18T23:52:44.398Z,9.4
2023-05-18T23:57:42.795Z,9.5
